Terminal Aerodrome Forecast
Issued by NWS San Angelo, TX

Home | Current Version | Previous Version | Text Only | Print | Product List | Glossary On
Versions: 1 2 3 4 5 6 7 8 9 10 11 12
227
FTUS44 KSJT 071723
TAFABI
TAF
KABI 071723Z 0718/0818 25012G20KT P6SM SKC
     FM072100 35011G20KT P6SM SKC
     FM080200 35009KT P6SM SKC=

USA.gov is the U.S. government's official web portal to all federal, state and local government web resources and services.